createdAt,value
2018-05-10T00:01:52.869Z,51.51
2018-05-10T00:04:23.847Z,52.70
2018-05-10T00:06:54.907Z,52.14
2018-05-10T00:09:25.932Z,51.63
2018-05-10T00:11:56.917Z,51.17
2018-05-10T00:14:27.958Z,51.45
2018-05-10T00:16:58.950Z,51.58
2018-05-10T00:19:29.960Z,51.78
2018-05-10T00:22:00.911Z,52.00
2018-05-10T00:24:31.896Z,52.98
2018-05-10T00:27:02.932Z,52.40
2018-05-10T00:29:33.866Z,52.01
2018-05-10T00:32:04.890Z,51.88
2018-05-10T00:34:35.870Z,51.73
2018-05-10T00:37:06.872Z,51.63
2018-05-10T00:39:52.767Z,51.65
2018-05-10T00:42:23.767Z,51.74
2018-05-10T00:44:54.747Z,52.27
2018-05-10T00:47:25.763Z,51.92
2018-05-10T00:49:56.812Z,51.23
2018-05-10T00:52:27.818Z,51.10
2018-05-10T00:54:58.830Z,51.22
2018-05-10T00:57:29.836Z,50.98
2018-05-10T01:00:00.844Z,51.04
2018-05-10T01:02:31.826Z,50.17
2018-05-10T01:05:02.880Z,50.90
2018-05-10T01:07:33.870Z,51.02
2018-05-10T01:10:04.878Z,51.25
2018-05-10T01:12:35.880Z,50.80
2018-05-10T01:15:06.883Z,50.86
2018-05-10T01:17:37.900Z,50.11
2018-05-10T01:20:08.890Z,49.12
2018-05-10T01:22:39.868Z,48.68
2018-05-10T01:25:10.866Z,48.59
2018-05-10T01:27:41.894Z,48.28
2018-05-10T01:30:12.898Z,48.57
2018-05-10T01:32:43.901Z,48.28
2018-05-10T01:35:27.148Z,48.17
2018-05-10T01:37:58.148Z,48.43
2018-05-10T01:40:29.188Z,48.42
2018-05-10T01:43:00.165Z,48.39
2018-05-10T01:45:31.152Z,48.18
2018-05-10T01:48:02.186Z,48.40
2018-05-10T01:50:33.191Z,48.90
2018-05-10T01:53:11.134Z,49.00
2018-05-10T01:55:42.158Z,49.17
2018-05-10T01:58:13.142Z,49.06
2018-05-10T02:00:44.160Z,48.90
2018-05-10T02:03:15.123Z,48.83
2018-05-10T02:05:46.149Z,48.63
2018-05-10T02:08:17.119Z,48.48
2018-05-10T02:10:48.121Z,48.43
2018-05-10T02:13:19.153Z,48.52
2018-05-10T02:15:50.167Z,49.34
2018-05-10T02:18:21.163Z,49.42
2018-05-10T02:20:52.118Z,49.43
2018-05-10T02:23:23.096Z,49.49
2018-05-10T02:25:54.094Z,49.49
2018-05-10T02:28:25.121Z,49.42
2018-05-10T02:30:56.127Z,49.52
2018-05-10T02:33:27.083Z,49.81
2018-05-10T02:35:58.081Z,49.88
2018-05-10T02:38:29.091Z,49.87
2018-05-10T02:41:00.108Z,49.59
2018-05-10T02:43:31.107Z,49.33
2018-05-10T02:46:02.181Z,49.34
2018-05-10T02:48:33.184Z,49.35
2018-05-10T02:51:04.158Z,49.41
2018-05-10T02:53:35.136Z,49.59
2018-05-10T02:56:06.176Z,49.69
2018-05-10T02:58:37.169Z,49.79
2018-05-10T03:01:08.190Z,50.05
2018-05-10T03:03:39.247Z,50.14
2018-05-10T03:06:10.302Z,50.35
2018-05-10T03:08:41.353Z,50.49
2018-05-10T03:11:12.363Z,50.60
2018-05-10T03:13:43.389Z,50.75
2018-05-10T03:16:14.379Z,51.01
2018-05-10T03:18:45.382Z,51.29
2018-05-10T03:21:16.333Z,51.42
2018-05-10T03:23:47.330Z,51.66
2018-05-10T03:26:18.413Z,52.02
2018-05-10T03:28:49.473Z,52.10
2018-05-10T03:31:20.475Z,52.31
2018-05-10T03:33:51.452Z,52.72
2018-05-10T03:36:22.448Z,53.20
2018-05-10T03:38:53.449Z,54.46
2018-05-10T03:41:24.443Z,55.20
2018-05-10T03:43:55.500Z,55.11
2018-05-10T03:46:26.559Z,55.17
2018-05-10T03:48:57.473Z,54.93
2018-05-10T03:51:28.414Z,54.87
2018-05-10T03:53:59.483Z,54.56
2018-05-10T03:56:30.473Z,54.14
2018-05-10T03:59:01.452Z,53.85
2018-05-10T04:01:32.413Z,53.84
2018-05-10T04:04:19.552Z,53.66
2018-05-10T04:07:02.944Z,53.55
2018-05-10T04:09:46.463Z,53.34
2018-05-10T04:12:17.484Z,53.08
2018-05-10T04:14:48.475Z,52.83
2018-05-10T04:17:19.453Z,52.59
2018-05-10T04:19:50.447Z,52.40
2018-05-10T04:22:21.451Z,52.27
2018-05-10T04:24:52.463Z,52.27
2018-05-10T04:27:23.435Z,52.29
2018-05-10T04:29:54.407Z,52.28
2018-05-10T04:32:25.427Z,52.16
2018-05-10T04:34:56.370Z,52.06
2018-05-10T04:37:27.358Z,51.98
2018-05-10T04:39:58.306Z,51.84
2018-05-10T04:42:29.277Z,52.06
2018-05-10T04:45:00.284Z,51.70
2018-05-10T04:47:31.288Z,51.24
2018-05-10T04:50:02.352Z,50.82
2018-05-10T04:52:33.362Z,50.49
2018-05-10T04:55:04.355Z,50.13
2018-05-10T04:57:35.334Z,49.64
2018-05-10T05:00:06.344Z,49.29
2018-05-10T05:02:37.308Z,49.18
2018-05-10T05:05:08.296Z,49.07
2018-05-10T05:07:39.297Z,49.15
2018-05-10T05:10:10.296Z,49.00
2018-05-10T05:12:41.300Z,48.88
2018-05-10T05:15:12.263Z,48.65
2018-05-10T05:17:43.280Z,48.18
2018-05-10T05:20:14.258Z,48.10
2018-05-10T05:22:45.235Z,48.14
2018-05-10T05:25:16.229Z,48.16
2018-05-10T05:27:47.221Z,48.32
2018-05-10T05:30:18.231Z,48.05
2018-05-10T05:32:49.206Z,47.45
2018-05-10T05:35:20.209Z,46.65
2018-05-10T05:37:51.188Z,46.09
2018-05-10T05:40:22.204Z,45.55
2018-05-10T05:42:53.185Z,44.91
2018-05-10T05:45:24.203Z,44.62
2018-05-10T05:47:55.175Z,44.43
2018-05-10T05:50:26.213Z,44.10
2018-05-10T05:52:57.158Z,43.69
2018-05-10T05:55:28.156Z,43.37
2018-05-10T05:57:59.102Z,42.90
2018-05-10T06:00:30.111Z,42.56
2018-05-10T06:03:01.084Z,42.33
2018-05-10T06:05:32.074Z,41.91
2018-05-10T06:08:03.090Z,36.89
2018-05-10T06:10:34.119Z,26.27
2018-05-10T06:13:05.079Z,20.51
2018-05-10T06:15:36.159Z,16.21
2018-05-10T06:18:09.986Z,13.80
2018-05-10T06:20:40.989Z,12.13
2018-05-10T06:23:12.014Z,10.95
2018-05-10T06:25:43.010Z,10.04
2018-05-10T06:28:14.053Z,9.37
2018-05-10T06:30:45.026Z,8.78
2018-05-10T06:33:16.070Z,8.00
2018-05-10T06:35:47.068Z,7.19
2018-05-10T06:38:18.088Z,6.63
2018-05-10T06:40:49.068Z,6.60
2018-05-10T06:43:20.098Z,6.52
2018-05-10T06:45:51.069Z,6.29
2018-05-10T06:48:22.082Z,6.03
2018-05-10T06:50:53.102Z,5.85
2018-05-10T06:53:24.136Z,5.38
2018-05-10T06:55:55.167Z,5.29
2018-05-10T06:58:26.188Z,5.32
2018-05-10T07:00:57.204Z,4.86
2018-05-10T07:03:28.263Z,4.74
2018-05-10T07:05:59.262Z,4.67
2018-05-10T07:08:30.287Z,5.01
2018-05-10T07:11:01.258Z,7.04
2018-05-10T07:13:32.288Z,9.06
2018-05-10T07:16:03.294Z,9.00
2018-05-10T07:18:34.317Z,9.42
2018-05-10T07:21:05.288Z,9.64
2018-05-10T07:23:36.281Z,9.78
2018-05-10T07:26:07.335Z,10.94
2018-05-10T07:28:38.326Z,11.40
2018-05-10T07:31:09.326Z,8.70
2018-05-10T07:33:40.332Z,6.90
2018-05-10T07:36:11.320Z,5.79
2018-05-10T07:38:42.317Z,5.01
2018-05-10T07:41:13.295Z,4.23
2018-05-10T07:43:44.278Z,3.52
2018-05-10T07:46:15.304Z,3.02
2018-05-10T07:48:46.263Z,2.70
2018-05-10T07:51:17.279Z,2.40
2018-05-10T07:53:48.267Z,2.72
2018-05-10T07:56:19.251Z,2.79
2018-05-10T07:58:50.227Z,2.63
2018-05-10T08:01:21.300Z,2.63
2018-05-10T08:03:52.253Z,2.83
2018-05-10T08:06:23.288Z,2.75
2018-05-10T08:08:54.243Z,2.78
2018-05-10T08:11:25.273Z,2.58
2018-05-10T08:13:56.268Z,2.41
2018-05-10T08:16:27.284Z,2.28
2018-05-10T08:18:58.298Z,2.20
2018-05-10T08:21:29.279Z,2.50
2018-05-10T08:24:00.305Z,2.62
2018-05-10T08:26:31.341Z,2.51
2018-05-10T08:29:02.354Z,2.58
2018-05-10T08:31:33.361Z,2.74
2018-05-10T08:34:04.373Z,3.81
2018-05-10T08:36:35.397Z,5.85
2018-05-10T08:39:06.409Z,6.37
2018-05-10T08:41:37.378Z,6.21
2018-05-10T08:44:08.382Z,5.56
2018-05-10T08:46:39.382Z,3.90
2018-05-10T08:49:17.318Z,2.77
2018-05-10T08:51:48.453Z,2.71
2018-05-10T08:54:19.394Z,2.69
2018-05-10T08:56:50.359Z,2.63
2018-05-10T08:59:21.363Z,2.66
2018-05-10T09:01:52.392Z,2.41
2018-05-10T09:04:23.373Z,2.11
2018-05-10T09:06:54.382Z,2.03
2018-05-10T09:09:25.367Z,1.85
2018-05-10T09:11:56.393Z,2.25
2018-05-10T09:14:27.416Z,2.46
2018-05-10T09:16:58.412Z,2.37
2018-05-10T09:19:29.441Z,2.60
2018-05-10T09:22:00.466Z,2.65
2018-05-10T09:24:31.496Z,2.78
2018-05-10T09:27:02.516Z,2.61
2018-05-10T09:29:33.489Z,2.64
2018-05-10T09:32:04.471Z,2.81
2018-05-10T09:34:35.475Z,2.65
2018-05-10T09:37:06.461Z,2.85
2018-05-10T09:39:37.465Z,3.07
2018-05-10T09:42:08.497Z,2.95
2018-05-10T09:44:39.430Z,2.59
2018-05-10T09:47:10.448Z,2.60
2018-05-10T09:49:41.456Z,3.12
2018-05-10T09:52:12.478Z,3.29
2018-05-10T09:54:43.473Z,3.27
2018-05-10T09:57:14.502Z,2.83
2018-05-10T09:59:45.608Z,2.58
2018-05-10T10:02:16.578Z,2.85
2018-05-10T10:04:47.546Z,2.92
2018-05-10T10:07:18.595Z,2.84
2018-05-10T10:09:49.611Z,2.95
2018-05-10T10:12:20.647Z,3.13
2018-05-10T10:14:51.660Z,2.94
2018-05-10T10:17:22.624Z,2.89
2018-05-10T10:19:53.610Z,3.29
2018-05-10T10:22:24.633Z,5.12
2018-05-10T10:24:55.667Z,5.44
2018-05-10T10:27:26.749Z,4.82
2018-05-10T10:29:57.726Z,5.70
2018-05-10T10:32:28.740Z,7.42
2018-05-10T10:34:59.734Z,9.09
2018-05-10T10:37:30.728Z,10.29
2018-05-10T10:40:01.691Z,11.73
2018-05-10T10:42:32.678Z,13.23
2018-05-10T10:45:03.688Z,14.48
2018-05-10T10:47:34.719Z,14.66
2018-05-10T10:50:05.728Z,15.16
2018-05-10T10:52:36.732Z,16.14
2018-05-10T10:55:07.714Z,17.72
2018-05-10T10:57:38.724Z,19.20
2018-05-10T11:00:09.669Z,20.75
2018-05-10T11:02:40.680Z,21.57
2018-05-10T11:05:11.689Z,21.75
2018-05-10T11:07:42.769Z,22.21
2018-05-10T11:10:13.808Z,22.18
2018-05-10T11:12:44.792Z,22.05
2018-05-10T11:15:15.791Z,22.47
2018-05-10T11:17:46.768Z,24.78
2018-05-10T11:20:17.766Z,26.78
2018-05-10T11:22:48.743Z,27.41
2018-05-10T11:25:19.733Z,26.89
2018-05-10T11:27:50.719Z,25.31
2018-05-10T11:30:21.778Z,24.38
2018-05-10T11:32:52.767Z,23.87
2018-05-10T11:35:23.766Z,24.30
2018-05-10T11:37:54.740Z,25.09
2018-05-10T11:40:25.740Z,25.38
2018-05-10T11:42:56.704Z,26.59
2018-05-10T11:45:27.695Z,26.13
2018-05-10T11:47:58.712Z,26.46
2018-05-10T11:50:29.739Z,27.44
2018-05-10T11:53:00.732Z,29.11
2018-05-10T11:55:31.727Z,27.57
2018-05-10T11:58:02.806Z,27.47
2018-05-10T12:00:33.815Z,25.75
2018-05-10T12:03:04.864Z,25.06
2018-05-10T12:05:35.835Z,24.54
2018-05-10T12:08:06.902Z,24.84
2018-05-10T12:10:37.865Z,24.47
2018-05-10T12:13:08.874Z,25.08
2018-05-10T12:15:39.952Z,24.74
2018-05-10T12:18:10.932Z,25.24
2018-05-10T12:20:41.932Z,25.97
2018-05-10T12:23:12.987Z,26.24
2018-05-10T12:25:43.954Z,26.41
2018-05-10T12:28:15.027Z,26.02
2018-05-10T12:30:46.051Z,25.63
2018-05-10T12:33:17.064Z,25.39
2018-05-10T12:35:48.034Z,25.09
2018-05-10T12:38:19.014Z,24.97
2018-05-10T12:40:50.115Z,24.88
2018-05-10T12:43:21.073Z,24.69
2018-05-10T12:45:52.093Z,24.85
2018-05-10T12:48:23.561Z,25.88
2018-05-10T12:50:54.579Z,25.80
2018-05-10T12:53:25.606Z,26.40
2018-05-10T12:55:56.586Z,26.38
2018-05-10T12:58:27.573Z,26.59
2018-05-10T13:00:58.574Z,26.94
2018-05-10T13:03:29.571Z,27.05
2018-05-10T13:06:00.584Z,27.10
2018-05-10T13:08:31.637Z,27.41
2018-05-10T13:11:02.616Z,27.37
2018-05-10T13:13:33.648Z,27.42
2018-05-10T13:16:04.684Z,27.92
2018-05-10T13:18:35.663Z,28.34
2018-05-10T13:21:06.653Z,28.59
2018-05-10T13:23:37.656Z,28.88
2018-05-10T13:26:08.665Z,28.80
2018-05-10T13:28:39.718Z,28.33
2018-05-10T13:31:10.717Z,27.77
2018-05-10T13:33:41.722Z,27.38
2018-05-10T13:36:12.717Z,27.32
2018-05-10T13:38:43.695Z,27.26
2018-05-10T13:41:14.722Z,27.59
2018-05-10T13:43:45.773Z,27.75
2018-05-10T13:46:16.787Z,28.12
2018-05-10T13:48:47.781Z,28.43
2018-05-10T13:51:18.799Z,28.52
2018-05-10T13:53:49.778Z,28.58
2018-05-10T13:56:20.787Z,28.60
2018-05-10T13:58:51.804Z,27.66
2018-05-10T14:01:22.878Z,27.90
2018-05-10T14:03:53.856Z,28.06
2018-05-10T14:06:24.896Z,28.12
2018-05-10T14:08:55.943Z,28.06
2018-05-10T14:11:26.937Z,28.61
2018-05-10T14:13:57.910Z,28.36
2018-05-10T14:16:28.946Z,28.45
2018-05-10T14:18:59.974Z,28.84
2018-05-10T14:21:30.944Z,29.18
2018-05-10T14:24:01.958Z,29.57
2018-05-10T14:26:32.942Z,29.99
2018-05-10T14:29:03.996Z,30.13
2018-05-10T14:31:41.848Z,29.74
2018-05-10T14:34:13.142Z,29.16
2018-05-10T14:36:44.130Z,29.15
2018-05-10T14:39:15.113Z,29.03
2018-05-10T14:41:46.138Z,29.23
2018-05-10T14:44:17.137Z,29.05
2018-05-10T14:46:48.208Z,28.20
2018-05-10T14:49:19.161Z,28.60
2018-05-10T14:51:50.122Z,28.64
2018-05-10T14:54:21.119Z,29.28
2018-05-10T14:56:52.139Z,29.24
2018-05-10T14:59:23.121Z,29.33
2018-05-10T15:01:54.082Z,30.04
2018-05-10T15:04:25.074Z,30.44
2018-05-10T15:06:56.042Z,30.99
2018-05-10T15:09:27.071Z,30.75
2018-05-10T15:11:58.048Z,30.22
2018-05-10T15:14:29.086Z,29.78
2018-05-10T15:17:00.120Z,29.25
2018-05-10T15:19:31.117Z,28.69
2018-05-10T15:22:02.125Z,28.40
2018-05-10T15:24:33.160Z,28.21
2018-05-10T15:27:04.215Z,28.07
2018-05-10T15:29:35.227Z,27.58
2018-05-10T15:32:06.287Z,28.28
2018-05-10T15:34:37.239Z,28.26
2018-05-10T15:37:08.216Z,28.44
2018-05-10T15:39:39.240Z,28.72
2018-05-10T15:42:10.280Z,28.93
2018-05-10T15:44:41.261Z,29.58
2018-05-10T15:47:12.232Z,30.01
2018-05-10T15:49:43.338Z,30.16
2018-05-10T15:52:14.226Z,30.50
2018-05-10T15:54:45.262Z,30.82
2018-05-10T15:57:16.276Z,31.07
2018-05-10T15:59:47.262Z,31.36
2018-05-10T16:02:18.269Z,31.41
2018-05-10T16:04:49.265Z,31.64
2018-05-10T16:07:20.306Z,31.28
2018-05-10T16:09:52.163Z,30.98
2018-05-10T16:12:23.191Z,30.83
2018-05-10T16:14:54.215Z,30.62
2018-05-10T16:17:25.201Z,31.25
2018-05-10T16:19:56.232Z,31.36
2018-05-10T16:22:27.242Z,31.99
2018-05-10T16:24:58.210Z,32.14
2018-05-10T16:27:29.254Z,32.19
2018-05-10T16:30:00.256Z,32.38
2018-05-10T16:32:31.280Z,32.90
2018-05-10T16:35:02.293Z,32.92
2018-05-10T16:37:33.344Z,33.24
2018-05-10T16:40:04.366Z,33.08
2018-05-10T16:42:35.499Z,32.73
2018-05-10T16:45:06.555Z,32.40
2018-05-10T16:47:37.526Z,31.97
2018-05-10T16:50:08.540Z,31.45
2018-05-10T16:52:39.531Z,31.99
2018-05-10T16:55:10.560Z,32.38
2018-05-10T16:57:41.551Z,32.34
2018-05-10T17:00:12.600Z,32.70
2018-05-10T17:02:43.569Z,33.40
2018-05-10T17:05:14.613Z,34.09
2018-05-10T17:07:45.635Z,34.46
2018-05-10T17:10:16.615Z,34.90
2018-05-10T17:12:47.616Z,35.20
2018-05-10T17:15:18.648Z,35.71
2018-05-10T17:17:49.682Z,36.18
2018-05-10T17:20:20.708Z,36.29
2018-05-10T17:22:51.726Z,36.59
2018-05-10T17:25:22.771Z,37.10
2018-05-10T17:27:53.791Z,37.36
2018-05-10T17:30:24.761Z,37.35
2018-05-10T17:32:55.774Z,37.58
2018-05-10T17:35:26.787Z,37.82
2018-05-10T17:37:57.813Z,37.78
2018-05-10T17:40:28.834Z,37.73
2018-05-10T17:42:59.858Z,38.21
2018-05-10T17:45:30.857Z,38.38
2018-05-10T17:48:01.902Z,39.15
2018-05-10T17:50:32.881Z,39.99
2018-05-10T17:53:03.918Z,39.90
2018-05-10T17:55:34.903Z,40.12
2018-05-10T17:58:05.980Z,40.04
2018-05-10T18:00:37.175Z,40.42
2018-05-10T18:03:08.210Z,40.87
2018-05-10T18:05:39.212Z,41.03
2018-05-10T18:08:10.213Z,41.30
2018-05-10T18:10:41.181Z,41.42
2018-05-10T18:13:12.187Z,41.41
2018-05-10T18:15:43.229Z,41.66
2018-05-10T18:18:14.186Z,42.49
2018-05-10T18:20:45.201Z,43.31
2018-05-10T18:23:16.304Z,45.80
2018-05-10T18:25:47.214Z,48.83
2018-05-10T18:28:18.216Z,50.82
2018-05-10T18:30:49.232Z,55.65
2018-05-10T18:33:20.261Z,56.57
2018-05-10T18:35:51.283Z,57.24
2018-05-10T18:38:22.242Z,57.41
2018-05-10T18:40:53.355Z,57.57
2018-05-10T18:43:24.801Z,57.43
2018-05-10T18:45:55.811Z,57.69
2018-05-10T18:48:26.941Z,57.93
2018-05-10T18:50:57.866Z,57.01
2018-05-10T18:53:28.898Z,57.05
2018-05-10T18:55:59.910Z,57.19
2018-05-10T18:58:30.942Z,57.14
2018-05-10T19:01:02.019Z,57.69
2018-05-10T19:03:33.188Z,56.96
2018-05-10T19:06:04.162Z,56.29
2018-05-10T19:08:35.131Z,56.16
2018-05-10T19:11:06.149Z,56.19
2018-05-10T19:13:37.108Z,55.93
2018-05-10T19:16:08.185Z,55.15
2018-05-10T19:18:39.143Z,55.13
2018-05-10T19:21:12.174Z,55.22
2018-05-10T19:23:44.275Z,55.42
2018-05-10T19:26:17.555Z,55.53
2018-05-10T19:28:49.773Z,55.10
2018-05-10T19:31:22.238Z,55.32
2018-05-10T19:33:54.711Z,55.34
2018-05-10T19:36:25.804Z,55.37
2018-05-10T19:38:58.367Z,55.18
2018-05-10T19:41:29.476Z,55.14
2018-05-10T19:44:00.460Z,55.71
2018-05-10T19:46:31.409Z,55.40
2018-05-10T19:49:02.418Z,55.17
2018-05-10T19:51:33.422Z,55.49
2018-05-10T19:54:04.431Z,55.78
2018-05-10T19:56:35.477Z,55.76
2018-05-10T19:59:06.385Z,55.90
2018-05-10T20:01:37.362Z,56.25
2018-05-10T20:04:08.388Z,56.31
2018-05-10T20:06:39.403Z,55.95
2018-05-10T20:09:17.349Z,56.31
2018-05-10T20:11:48.405Z,55.93
2018-05-10T20:14:21.538Z,55.90
2018-05-10T20:16:54.566Z,55.99
2018-05-10T20:19:27.775Z,55.85
2018-05-10T20:22:01.092Z,55.85
2018-05-10T20:24:33.732Z,55.97
2018-05-10T20:27:07.538Z,56.49
2018-05-10T20:29:41.150Z,56.19
2018-05-10T20:32:14.501Z,56.39
2018-05-10T20:34:46.842Z,56.87
2018-05-10T20:37:19.512Z,56.93
2018-05-10T20:39:52.465Z,57.71
2018-05-10T20:42:25.084Z,57.00
2018-05-10T20:44:58.035Z,57.01
2018-05-10T20:47:32.137Z,57.24
2018-05-10T20:50:04.555Z,56.92
2018-05-10T20:52:37.615Z,57.26
2018-05-10T20:55:10.167Z,57.53
2018-05-10T20:57:43.458Z,57.27
2018-05-10T21:00:15.984Z,56.92
2018-05-10T21:02:49.142Z,56.89
2018-05-10T21:05:21.485Z,57.37
2018-05-10T21:07:54.258Z,56.77
2018-05-10T21:10:26.890Z,56.65
2018-05-10T21:12:59.242Z,56.77
2018-05-10T21:15:31.881Z,56.48
2018-05-10T21:18:04.220Z,56.41
2018-05-10T21:20:37.531Z,56.44
2018-05-10T21:23:10.580Z,56.56
2018-05-10T21:25:41.800Z,56.92
2018-05-10T21:28:12.778Z,56.60
2018-05-10T21:30:43.756Z,56.27
2018-05-10T21:33:14.681Z,56.19
2018-05-10T21:35:45.655Z,56.03
2018-05-10T21:38:16.883Z,56.02
2018-05-10T21:40:47.868Z,55.98
2018-05-10T21:43:18.866Z,55.76
2018-05-10T21:45:49.856Z,55.81
2018-05-10T21:48:20.877Z,55.53
2018-05-10T21:50:51.889Z,55.57
2018-05-10T21:53:22.988Z,55.39
2018-05-10T21:55:53.903Z,55.47
2018-05-10T21:58:24.920Z,55.46
2018-05-10T22:00:55.900Z,55.01
2018-05-10T22:03:26.895Z,55.28
2018-05-10T22:05:57.882Z,54.95
2018-05-10T22:08:28.886Z,54.79
2018-05-10T22:10:59.844Z,55.15
2018-05-10T22:13:30.914Z,55.36
2018-05-10T22:16:01.914Z,55.05
2018-05-10T22:18:32.929Z,54.84
2018-05-10T22:21:03.897Z,54.88
2018-05-10T22:23:34.875Z,55.21
2018-05-10T22:26:05.797Z,55.12
2018-05-10T22:28:36.823Z,54.92
2018-05-10T22:31:07.773Z,54.65
2018-05-10T22:33:38.755Z,54.72
2018-05-10T22:36:09.752Z,54.57
2018-05-10T22:38:40.718Z,54.92
2018-05-10T22:41:11.655Z,54.82
2018-05-10T22:43:42.645Z,54.74
2018-05-10T22:46:13.661Z,54.98
2018-05-10T22:48:44.646Z,54.83
2018-05-10T22:51:15.650Z,54.87
2018-05-10T22:53:46.666Z,54.81
2018-05-10T22:56:17.660Z,54.60
2018-05-10T22:58:48.708Z,54.79
2018-05-10T23:01:19.734Z,55.03
2018-05-10T23:03:50.735Z,55.04
2018-05-10T23:06:21.724Z,55.11
2018-05-10T23:08:52.752Z,54.98
2018-05-10T23:11:23.718Z,55.00
2018-05-10T23:13:54.724Z,55.18
2018-05-10T23:16:25.706Z,55.10
2018-05-10T23:18:56.662Z,55.20
2018-05-10T23:21:27.659Z,55.17
2018-05-10T23:23:58.617Z,54.94
2018-05-10T23:26:29.597Z,55.02
2018-05-10T23:29:00.603Z,55.10
2018-05-10T23:31:31.590Z,55.05
2018-05-10T23:34:02.600Z,54.96
2018-05-10T23:36:33.538Z,54.94
2018-05-10T23:39:04.591Z,55.18
2018-05-10T23:41:35.585Z,55.46
2018-05-10T23:44:06.576Z,55.59
2018-05-10T23:46:37.582Z,55.55
2018-05-10T23:49:08.550Z,55.31
2018-05-10T23:51:39.506Z,55.45
2018-05-10T23:54:10.467Z,55.40
2018-05-10T23:56:41.474Z,55.22
2018-05-10T23:59:12.496Z,55.16
